METAR Data
IDs: Format: Raw Decoded Include TAF

Data at: 1026 UTC 18 Jan 2022

LLBG 181020Z 25004KT 210V300 9999 FEW050 15/M00 Q1023 NOSIG